Ranlo, North Carolina
Current Conditions -  °F | °C
As of 1:54 PM on Friday 28 Nov 2014 (Local Time) from KAKH Reporting Station
Clear Clear  
Wind Chill: 45°   Ceiling: Unl
Heat Index: 45°   Visibility: 10mi
Dew Point: 18°   Wind: 0mph
Humidity: 34%   Direction: NA
Pressure: 30.29"   Gusts: NA
Location:  35.2631°N, 81.1487°W
Report Text: KAKH 281854Z AUTO 00000KT 10SM CLR 07/M08 A3029 RMK AO2 SLP263 T00721078
Loading
Personal Weather Stations






























Interactive Weather Map New forecast layout! Learn more

10-Day Weather Forecast

Advertisements
Track Severe Weather on mobile